sensor_id;sensor_type;location;lat;lon;timestamp;P1;durP1;ratioP1;P2;durP2;ratioP2
17727;SDS011;8984;49.268;12.302;2022-09-09T00:01:36;2.57;;;1.40;;
17727;SDS011;8984;49.268;12.302;2022-09-09T00:04:09;4.83;;;1.63;;
17727;SDS011;8984;49.268;12.302;2022-09-09T00:06:43;4.50;;;1.40;;
17727;SDS011;8984;49.268;12.302;2022-09-09T00:09:15;2.30;;;1.47;;
17727;SDS011;8984;49.268;12.302;2022-09-09T00:11:43;3.73;;;1.40;;
17727;SDS011;8984;49.268;12.302;2022-09-09T00:14:17;2.47;;;1.37;;
17727;SDS011;8984;49.268;12.302;2022-09-09T00:16:50;5.10;;;1.60;;
17727;SDS011;8984;49.268;12.302;2022-09-09T00:19:22;3.27;;;1.27;;
17727;SDS011;8984;49.268;12.302;2022-09-09T00:22:00;5.30;;;1.40;;
17727;SDS011;8984;49.268;12.302;2022-09-09T00:24:38;1.90;;;1.43;;
17727;SDS011;8984;49.268;12.302;2022-09-09T00:27:11;3.73;;;1.43;;
17727;SDS011;8984;49.268;12.302;2022-09-09T00:29:50;2.50;;;1.67;;
17727;SDS011;8984;49.268;12.302;2022-09-09T00:32:20;3.60;;;1.87;;
17727;SDS011;8984;49.268;12.302;2022-09-09T00:34:48;5.57;;;1.67;;
17727;SDS011;8984;49.268;12.302;2022-09-09T00:37:18;3.10;;;1.40;;
17727;SDS011;8984;49.268;12.302;2022-09-09T00:39:48;3.13;;;1.60;;
17727;SDS011;8984;49.268;12.302;2022-09-09T00:42:18;4.37;;;1.70;;
17727;SDS011;8984;49.268;12.302;2022-09-09T00:44:55;4.57;;;2.07;;
17727;SDS011;8984;49.268;12.302;2022-09-09T00:47:30;6.10;;;1.70;;
17727;SDS011;8984;49.268;12.302;2022-09-09T00:50:15;8.80;;;2.40;;
17727;SDS011;8984;49.268;12.302;2022-09-09T00:52:56;2.70;;;2.20;;
17727;SDS011;8984;49.268;12.302;2022-09-09T00:55:36;5.30;;;2.10;;
17727;SDS011;8984;49.268;12.302;2022-09-09T00:58:09;11.60;;;2.13;;
17727;SDS011;8984;49.268;12.302;2022-09-09T01:00:38;7.90;;;1.77;;
17727;SDS011;8984;49.268;12.302;2022-09-09T01:03:19;2.73;;;1.73;;
17727;SDS011;8984;49.268;12.302;2022-09-09T01:05:53;3.87;;;1.60;;
17727;SDS011;8984;49.268;12.302;2022-09-09T01:11:33;3.53;;;1.60;;
17727;SDS011;8984;49.268;12.302;2022-09-09T01:14:10;7.37;;;2.07;;
17727;SDS011;8984;49.268;12.302;2022-09-09T01:16:45;2.03;;;1.63;;
17727;SDS011;8984;49.268;12.302;2022-09-09T01:19:15;5.97;;;1.63;;
17727;SDS011;8984;49.268;12.302;2022-09-09T01:21:53;4.17;;;1.83;;
17727;SDS011;8984;49.268;12.302;2022-09-09T01:24:27;3.80;;;1.57;;
17727;SDS011;8984;49.268;12.302;2022-09-09T01:27:02;8.30;;;2.27;;
17727;SDS011;8984;49.268;12.302;2022-09-09T01:29:32;2.90;;;2.00;;
17727;SDS011;8984;49.268;12.302;2022-09-09T01:32:00;18.50;;;2.33;;
17727;SDS011;8984;49.268;12.302;2022-09-09T01:34:28;15.30;;;2.33;;
17727;SDS011;8984;49.268;12.302;2022-09-09T01:37:01;4.43;;;2.40;;
17727;SDS011;8984;49.268;12.302;2022-09-09T01:39:30;3.67;;;2.00;;
17727;SDS011;8984;49.268;12.302;2022-09-09T01:41:58;3.20;;;1.90;;
17727;SDS011;8984;49.268;12.302;2022-09-09T01:44:27;1.93;;;1.47;;
17727;SDS011;8984;49.268;12.302;2022-09-09T01:46:58;1.83;;;1.50;;
17727;SDS011;8984;49.268;12.302;2022-09-09T01:49:25;2.27;;;1.57;;
17727;SDS011;8984;49.268;12.302;2022-09-09T01:51:53;3.70;;;1.50;;
17727;SDS011;8984;49.268;12.302;2022-09-09T01:54:23;4.00;;;1.90;;
17727;SDS011;8984;49.268;12.302;2022-09-09T01:56:54;1.73;;;1.60;;
17727;SDS011;8984;49.268;12.302;2022-09-09T01:59:37;5.17;;;1.80;;
17727;SDS011;8984;49.268;12.302;2022-09-09T02:02:13;4.50;;;2.00;;
17727;SDS011;8984;49.268;12.302;2022-09-09T02:04:44;6.27;;;2.30;;
17727;SDS011;8984;49.268;12.302;2022-09-09T02:07:24;27.60;;;2.30;;
17727;SDS011;8984;49.268;12.302;2022-09-09T02:10:07;9.80;;;2.23;;
17727;SDS011;8984;49.268;12.302;2022-09-09T02:12:39;13.27;;;2.23;;
17727;SDS011;8984;49.268;12.302;2022-09-09T02:15:14;21.80;;;2.10;;
17727;SDS011;8984;49.268;12.302;2022-09-09T02:17:46;53.10;;;3.00;;
17727;SDS011;8984;49.268;12.302;2022-09-09T02:20:19;31.13;;;2.90;;
17727;SDS011;8984;49.268;12.302;2022-09-09T02:22:51;73.17;;;3.57;;
17727;SDS011;8984;49.268;12.302;2022-09-09T02:25:20;19.87;;;2.60;;
17727;SDS011;8984;49.268;12.302;2022-09-09T02:27:50;32.63;;;2.70;;
17727;SDS011;8984;49.268;12.302;2022-09-09T02:30:24;13.83;;;2.47;;
17727;SDS011;8984;49.268;12.302;2022-09-09T02:32:53;6.50;;;2.37;;
17727;SDS011;8984;49.268;12.302;2022-09-09T02:35:23;6.47;;;1.97;;
17727;SDS011;8984;49.268;12.302;2022-09-09T02:37:51;10.90;;;1.60;;
17727;SDS011;8984;49.268;12.302;2022-09-09T02:40:21;10.63;;;1.97;;
17727;SDS011;8984;49.268;12.302;2022-09-09T02:42:48;8.00;;;1.70;;
17727;SDS011;8984;49.268;12.302;2022-09-09T02:45:16;17.67;;;2.07;;
17727;SDS011;8984;49.268;12.302;2022-09-09T02:47:50;39.53;;;2.33;;
17727;SDS011;8984;49.268;12.302;2022-09-09T02:50:23;13.40;;;2.20;;
17727;SDS011;8984;49.268;12.302;2022-09-09T02:53:00;45.40;;;2.93;;
17727;SDS011;8984;49.268;12.302;2022-09-09T02:55:37;151.03;;;4.27;;
17727;SDS011;8984;49.268;12.302;2022-09-09T02:58:08;69.93;;;3.13;;
17727;SDS011;8984;49.268;12.302;2022-09-09T03:00:37;17.73;;;2.70;;
17727;SDS011;8984;49.268;12.302;2022-09-09T03:03:07;51.97;;;2.87;;
17727;SDS011;8984;49.268;12.302;2022-09-09T03:05:34;105.70;;;3.93;;
17727;SDS011;8984;49.268;12.302;2022-09-09T03:08:02;174.40;;;4.67;;
17727;SDS011;8984;49.268;12.302;2022-09-09T03:10:30;31.97;;;2.80;;
17727;SDS011;8984;49.268;12.302;2022-09-09T03:12:57;49.20;;;2.77;;
17727;SDS011;8984;49.268;12.302;2022-09-09T03:15:25;26.53;;;2.53;;
17727;SDS011;8984;49.268;12.302;2022-09-09T03:17:54;110.67;;;3.77;;
17727;SDS011;8984;49.268;12.302;2022-09-09T03:20:23;117.20;;;3.80;;
17727;SDS011;8984;49.268;12.302;2022-09-09T03:22:51;90.77;;;3.43;;
17727;SDS011;8984;49.268;12.302;2022-09-09T03:25:18;102.03;;;4.07;;
17727;SDS011;8984;49.268;12.302;2022-09-09T03:27:44;34.87;;;2.97;;
17727;SDS011;8984;49.268;12.302;2022-09-09T03:30:12;5.07;;;2.10;;
17727;SDS011;8984;49.268;12.302;2022-09-09T03:32:39;3.33;;;2.00;;
17727;SDS011;8984;49.268;12.302;2022-09-09T03:35:06;15.27;;;2.23;;
17727;SDS011;8984;49.268;12.302;2022-09-09T03:37:35;24.37;;;2.33;;
17727;SDS011;8984;49.268;12.302;2022-09-09T03:40:04;9.23;;;2.00;;
17727;SDS011;8984;49.268;12.302;2022-09-09T03:42:32;21.93;;;2.07;;
17727;SDS011;8984;49.268;12.302;2022-09-09T03:44:58;4.07;;;1.93;;
17727;SDS011;8984;49.268;12.302;2022-09-09T03:47:25;17.40;;;2.10;;
17727;SDS011;8984;49.268;12.302;2022-09-09T03:49:52;11.97;;;2.40;;
17727;SDS011;8984;49.268;12.302;2022-09-09T03:52:19;3.70;;;2.03;;
17727;SDS011;8984;49.268;12.302;2022-09-09T03:54:48;3.63;;;2.00;;
17727;SDS011;8984;49.268;12.302;2022-09-09T03:57:16;7.43;;;2.43;;
17727;SDS011;8984;49.268;12.302;2022-09-09T03:59:43;5.07;;;1.60;;
17727;SDS011;8984;49.268;12.302;2022-09-09T04:02:10;4.67;;;2.10;;
17727;SDS011;8984;49.268;12.302;2022-09-09T04:04:37;3.77;;;2.10;;
17727;SDS011;8984;49.268;12.302;2022-09-09T04:07:04;3.37;;;1.90;;
17727;SDS011;8984;49.268;12.302;2022-09-09T04:09:32;1.80;;;1.70;;
17727;SDS011;8984;49.268;12.302;2022-09-09T04:12:01;4.43;;;1.90;;
17727;SDS011;8984;49.268;12.302;2022-09-09T04:14:28;4.00;;;1.77;;
17727;SDS011;8984;49.268;12.302;2022-09-09T04:16:55;7.27;;;2.13;;
17727;SDS011;8984;49.268;12.302;2022-09-09T04:19:22;1.60;;;1.50;;
17727;SDS011;8984;49.268;12.302;2022-09-09T04:21:49;12.83;;;2.27;;
17727;SDS011;8984;49.268;12.302;2022-09-09T04:24:16;2.67;;;1.77;;
17727;SDS011;8984;49.268;12.302;2022-09-09T04:26:43;6.23;;;2.37;;
17727;SDS011;8984;49.268;12.302;2022-09-09T04:29:13;1.87;;;1.60;;
17727;SDS011;8984;49.268;12.302;2022-09-09T04:31:40;2.90;;;1.90;;
17727;SDS011;8984;49.268;12.302;2022-09-09T04:34:07;1.70;;;1.60;;
17727;SDS011;8984;49.268;12.302;2022-09-09T04:36:34;2.00;;;1.70;;
17727;SDS011;8984;49.268;12.302;2022-09-09T04:39:01;2.33;;;1.87;;
17727;SDS011;8984;49.268;12.302;2022-09-09T04:41:28;3.93;;;1.90;;
17727;SDS011;8984;49.268;12.302;2022-09-09T04:46:29;5.03;;;1.80;;
17727;SDS011;8984;49.268;12.302;2022-09-09T04:48:55;2.40;;;1.77;;
17727;SDS011;8984;49.268;12.302;2022-09-09T04:51:22;4.13;;;1.40;;
17727;SDS011;8984;49.268;12.302;2022-09-09T04:53:49;2.60;;;1.70;;
17727;SDS011;8984;49.268;12.302;2022-09-09T04:56:19;3.97;;;1.77;;
17727;SDS011;8984;49.268;12.302;2022-09-09T04:58:46;1.83;;;1.73;;
17727;SDS011;8984;49.268;12.302;2022-09-09T05:01:14;7.03;;;1.70;;
17727;SDS011;8984;49.268;12.302;2022-09-09T05:03:44;2.07;;;1.60;;
17727;SDS011;8984;49.268;12.302;2022-09-09T05:06:13;2.17;;;1.70;;
17727;SDS011;8984;49.268;12.302;2022-09-09T05:08:41;4.33;;;1.70;;
17727;SDS011;8984;49.268;12.302;2022-09-09T05:11:15;3.17;;;1.80;;
17727;SDS011;8984;49.268;12.302;2022-09-09T05:13:44;2.97;;;1.90;;
17727;SDS011;8984;49.268;12.302;2022-09-09T05:16:11;3.10;;;2.30;;
17727;SDS011;8984;49.268;12.302;2022-09-09T05:18:39;2.30;;;2.10;;
17727;SDS011;8984;49.268;12.302;2022-09-09T05:21:09;3.67;;;1.93;;
17727;SDS011;8984;49.268;12.302;2022-09-09T05:23:36;2.20;;;2.00;;
17727;SDS011;8984;49.268;12.302;2022-09-09T05:26:03;6.10;;;1.57;;
17727;SDS011;8984;49.268;12.302;2022-09-09T05:28:33;3.27;;;1.60;;
17727;SDS011;8984;49.268;12.302;2022-09-09T05:31:01;3.33;;;1.77;;
17727;SDS011;8984;49.268;12.302;2022-09-09T05:33:30;2.53;;;1.70;;
17727;SDS011;8984;49.268;12.302;2022-09-09T05:35:58;5.40;;;1.90;;
17727;SDS011;8984;49.268;12.302;2022-09-09T05:38:28;3.07;;;2.10;;
17727;SDS011;8984;49.268;12.302;2022-09-09T05:40:55;2.50;;;1.97;;
17727;SDS011;8984;49.268;12.302;2022-09-09T05:43:22;2.53;;;2.30;;
17727;SDS011;8984;49.268;12.302;2022-09-09T05:45:58;5.73;;;1.80;;
17727;SDS011;8984;49.268;12.302;2022-09-09T05:48:27;2.00;;;1.80;;
17727;SDS011;8984;49.268;12.302;2022-09-09T05:50:55;3.30;;;2.00;;
17727;SDS011;8984;49.268;12.302;2022-09-09T05:53:22;5.53;;;2.00;;
17727;SDS011;8984;49.268;12.302;2022-09-09T05:55:57;2.37;;;1.70;;
17727;SDS011;8984;49.268;12.302;2022-09-09T05:58:24;2.30;;;2.10;;
17727;SDS011;8984;49.268;12.302;2022-09-09T06:00:51;2.73;;;2.00;;
17727;SDS011;8984;49.268;12.302;2022-09-09T06:03:19;4.20;;;2.13;;
17727;SDS011;8984;49.268;12.302;2022-09-09T06:05:56;2.57;;;2.03;;
17727;SDS011;8984;49.268;12.302;2022-09-09T06:08:23;3.03;;;2.13;;
17727;SDS011;8984;49.268;12.302;2022-09-09T06:10:51;2.23;;;2.03;;
17727;SDS011;8984;49.268;12.302;2022-09-09T06:13:18;5.20;;;2.00;;
17727;SDS011;8984;49.268;12.302;2022-09-09T06:15:49;2.00;;;1.80;;
17727;SDS011;8984;49.268;12.302;2022-09-09T06:18:16;2.53;;;2.10;;
17727;SDS011;8984;49.268;12.302;2022-09-09T06:20:43;4.60;;;2.37;;
17727;SDS011;8984;49.268;12.302;2022-09-09T06:23:20;5.63;;;4.30;;
17727;SDS011;8984;49.268;12.302;2022-09-09T06:25:47;4.43;;;3.67;;
17727;SDS011;8984;49.268;12.302;2022-09-09T06:28:16;2.40;;;2.20;;
17727;SDS011;8984;49.268;12.302;2022-09-09T06:30:42;4.60;;;1.70;;
17727;SDS011;8984;49.268;12.302;2022-09-09T06:33:09;2.63;;;2.20;;
17727;SDS011;8984;49.268;12.302;2022-09-09T06:35:36;2.20;;;2.00;;
17727;SDS011;8984;49.268;12.302;2022-09-09T06:38:03;5.57;;;2.53;;
17727;SDS011;8984;49.268;12.302;2022-09-09T06:40:30;2.50;;;2.30;;
17727;SDS011;8984;49.268;12.302;2022-09-09T06:42:59;5.17;;;2.20;;
17727;SDS011;8984;49.268;12.302;2022-09-09T06:45:28;3.93;;;2.20;;
17727;SDS011;8984;49.268;12.302;2022-09-09T06:47:55;3.27;;;2.30;;
17727;SDS011;8984;49.268;12.302;2022-09-09T06:50:22;3.67;;;1.90;;
17727;SDS011;8984;49.268;12.302;2022-09-09T06:52:49;3.07;;;1.80;;
17727;SDS011;8984;49.268;12.302;2022-09-09T06:55:16;3.57;;;2.50;;
17727;SDS011;8984;49.268;12.302;2022-09-09T06:57:44;2.47;;;2.23;;
17727;SDS011;8984;49.268;12.302;2022-09-09T07:00:11;3.30;;;2.90;;
17727;SDS011;8984;49.268;12.302;2022-09-09T07:02:40;4.63;;;2.50;;
17727;SDS011;8984;49.268;12.302;2022-09-09T07:05:07;4.83;;;2.27;;
17727;SDS011;8984;49.268;12.302;2022-09-09T07:07:35;3.10;;;2.20;;
17727;SDS011;8984;49.268;12.302;2022-09-09T07:10:02;3.07;;;2.40;;
17727;SDS011;8984;49.268;12.302;2022-09-09T07:12:30;3.67;;;2.40;;
17727;SDS011;8984;49.268;12.302;2022-09-09T07:14:57;2.57;;;2.13;;
17727;SDS011;8984;49.268;12.302;2022-09-09T07:17:23;2.73;;;2.50;;
17727;SDS011;8984;49.268;12.302;2022-09-09T07:19:51;7.17;;;2.63;;
17727;SDS011;8984;49.268;12.302;2022-09-09T07:22:18;5.33;;;2.57;;
17727;SDS011;8984;49.268;12.302;2022-09-09T07:24:45;5.10;;;2.50;;
17727;SDS011;8984;49.268;12.302;2022-09-09T07:27:14;2.47;;;2.27;;
17727;SDS011;8984;49.268;12.302;2022-09-09T07:29:41;6.67;;;3.00;;
17727;SDS011;8984;49.268;12.302;2022-09-09T07:32:08;3.60;;;2.90;;
17727;SDS011;8984;49.268;12.302;2022-09-09T07:34:34;6.55;;;2.85;;
17727;SDS011;8984;49.268;12.302;2022-09-09T07:37:03;4.13;;;2.88;;
17727;SDS011;8984;49.268;12.302;2022-09-09T07:39:30;4.20;;;2.83;;
17727;SDS011;8984;49.268;12.302;2022-09-09T07:41:57;4.32;;;2.78;;
17727;SDS011;8984;49.268;12.302;2022-09-09T07:44:24;3.67;;;2.70;;
17727;SDS011;8984;49.268;12.302;2022-09-09T07:46:51;4.15;;;2.67;;
17727;SDS011;8984;49.268;12.302;2022-09-09T07:49:18;4.38;;;3.10;;
17727;SDS011;8984;49.268;12.302;2022-09-09T07:51:46;4.80;;;2.90;;
17727;SDS011;8984;49.268;12.302;2022-09-09T07:54:16;4.50;;;2.90;;
17727;SDS011;8984;49.268;12.302;2022-09-09T07:56:45;4.38;;;3.10;;
17727;SDS011;8984;49.268;12.302;2022-09-09T07:59:14;4.18;;;2.90;;
17727;SDS011;8984;49.268;12.302;2022-09-09T08:01:42;5.45;;;3.00;;
17727;SDS011;8984;49.268;12.302;2022-09-09T08:04:11;4.28;;;3.22;;
17727;SDS011;8984;49.268;12.302;2022-09-09T08:06:42;4.70;;;2.92;;
17727;SDS011;8984;49.268;12.302;2022-09-09T08:09:10;5.55;;;3.35;;
17727;SDS011;8984;49.268;12.302;2022-09-09T08:11:38;4.07;;;2.55;;
17727;SDS011;8984;49.268;12.302;2022-09-09T08:14:06;5.57;;;3.00;;
17727;SDS011;8984;49.268;12.302;2022-09-09T08:16:34;7.00;;;3.20;;
17727;SDS011;8984;49.268;12.302;2022-09-09T08:19:03;3.70;;;3.22;;
17727;SDS011;8984;49.268;12.302;2022-09-09T08:21:31;4.85;;;2.70;;
17727;SDS011;8984;49.268;12.302;2022-09-09T08:23:58;2.80;;;2.40;;
17727;SDS011;8984;49.268;12.302;2022-09-09T08:26:27;6.88;;;2.60;;
17727;SDS011;8984;49.268;12.302;2022-09-09T08:28:57;3.65;;;2.40;;
17727;SDS011;8984;49.268;12.302;2022-09-09T08:31:26;5.70;;;2.35;;
17727;SDS011;8984;49.268;12.302;2022-09-09T08:33:54;5.63;;;2.65;;
17727;SDS011;8984;49.268;12.302;2022-09-09T08:36:22;4.25;;;2.90;;
17727;SDS011;8984;49.268;12.302;2022-09-09T08:38:51;3.10;;;2.72;;
17727;SDS011;8984;49.268;12.302;2022-09-09T08:41:25;4.05;;;2.92;;
17727;SDS011;8984;49.268;12.302;2022-09-09T08:44:03;4.03;;;2.63;;
17727;SDS011;8984;49.268;12.302;2022-09-09T08:46:35;2.97;;;2.13;;
17727;SDS011;8984;49.268;12.302;2022-09-09T08:49:14;5.53;;;2.20;;
17727;SDS011;8984;49.268;12.302;2022-09-09T08:52:00;3.80;;;1.90;;
17727;SDS011;8984;49.268;12.302;2022-09-09T08:54:28;2.00;;;1.63;;
17727;SDS011;8984;49.268;12.302;2022-09-09T08:57:01;2.57;;;1.63;;
17727;SDS011;8984;49.268;12.302;2022-09-09T08:59:30;2.67;;;1.50;;
17727;SDS011;8984;49.268;12.302;2022-09-09T09:02:00;4.67;;;3.00;;
17727;SDS011;8984;49.268;12.302;2022-09-09T09:04:37;2.47;;;1.60;;
17727;SDS011;8984;49.268;12.302;2022-09-09T09:07:16;2.87;;;2.00;;
17727;SDS011;8984;49.268;12.302;2022-09-09T09:09:54;3.40;;;1.93;;
17727;SDS011;8984;49.268;12.302;2022-09-09T09:12:28;4.87;;;1.73;;
17727;SDS011;8984;49.268;12.302;2022-09-09T09:14:58;3.90;;;1.90;;
17727;SDS011;8984;49.268;12.302;2022-09-09T09:17:26;6.85;;;2.03;;
17727;SDS011;8984;49.268;12.302;2022-09-09T09:19:58;4.70;;;1.93;;
17727;SDS011;8984;49.268;12.302;2022-09-09T09:22:26;4.73;;;2.10;;
17727;SDS011;8984;49.268;12.302;2022-09-09T09:25:00;3.90;;;1.87;;
17727;SDS011;8984;49.268;12.302;2022-09-09T09:27:36;3.27;;;1.70;;
17727;SDS011;8984;49.268;12.302;2022-09-09T09:30:13;4.13;;;2.10;;
17727;SDS011;8984;49.268;12.302;2022-09-09T09:32:43;4.40;;;1.90;;
17727;SDS011;8984;49.268;12.302;2022-09-09T09:35:15;3.08;;;1.67;;
17727;SDS011;8984;49.268;12.302;2022-09-09T09:37:42;2.73;;;1.60;;
17727;SDS011;8984;49.268;12.302;2022-09-09T09:40:10;4.53;;;1.67;;
17727;SDS011;8984;49.268;12.302;2022-09-09T09:42:46;3.60;;;1.40;;
17727;SDS011;8984;49.268;12.302;2022-09-09T09:45:17;3.50;;;1.85;;
17727;SDS011;8984;49.268;12.302;2022-09-09T09:47:59;3.47;;;1.90;;
17727;SDS011;8984;49.268;12.302;2022-09-09T09:50:27;3.15;;;1.42;;
17727;SDS011;8984;49.268;12.302;2022-09-09T09:52:55;4.18;;;1.58;;
17727;SDS011;8984;49.268;12.302;2022-09-09T09:55:23;3.03;;;1.58;;
17727;SDS011;8984;49.268;12.302;2022-09-09T09:57:52;1.52;;;1.23;;
17727;SDS011;8984;49.268;12.302;2022-09-09T10:00:21;5.55;;;1.70;;
17727;SDS011;8984;49.268;12.302;2022-09-09T10:02:49;3.72;;;1.60;;
17727;SDS011;8984;49.268;12.302;2022-09-09T10:05:18;3.60;;;1.20;;
17727;SDS011;8984;49.268;12.302;2022-09-09T10:07:47;2.13;;;1.30;;
17727;SDS011;8984;49.268;12.302;2022-09-09T10:10:26;1.20;;;1.10;;
17727;SDS011;8984;49.268;12.302;2022-09-09T10:13:05;2.53;;;1.40;;
17727;SDS011;8984;49.268;12.302;2022-09-09T10:15:40;1.63;;;1.10;;
17727;SDS011;8984;49.268;12.302;2022-09-09T10:18:19;2.28;;;1.45;;
17727;SDS011;8984;49.268;12.302;2022-09-09T10:20:58;3.22;;;1.52;;
17727;SDS011;8984;49.268;12.302;2022-09-09T10:23:36;3.45;;;1.30;;
17727;SDS011;8984;49.268;12.302;2022-09-09T10:26:16;3.53;;;1.23;;
17727;SDS011;8984;49.268;12.302;2022-09-09T10:31:51;1.42;;;0.95;;
17727;SDS011;8984;49.268;12.302;2022-09-09T10:34:38;1.33;;;1.00;;
17727;SDS011;8984;49.268;12.302;2022-09-09T10:37:20;1.73;;;1.02;;
17727;SDS011;8984;49.268;12.302;2022-09-09T10:40:05;2.47;;;1.05;;
17727;SDS011;8984;49.268;12.302;2022-09-09T10:42:46;1.10;;;0.80;;
17727;SDS011;8984;49.268;12.302;2022-09-09T10:45:15;1.52;;;0.80;;
17727;SDS011;8984;49.268;12.302;2022-09-09T10:47:52;1.45;;;0.90;;
17727;SDS011;8984;49.268;12.302;2022-09-09T10:53:37;1.45;;;0.77;;
17727;SDS011;8984;49.268;12.302;2022-09-09T10:56:13;3.60;;;0.70;;
17727;SDS011;8984;49.268;12.302;2022-09-09T10:58:44;1.80;;;1.08;;
17727;SDS011;8984;49.268;12.302;2022-09-09T11:01:17;1.88;;;0.80;;
17727;SDS011;8984;49.268;12.302;2022-09-09T11:03:52;2.83;;;0.65;;
17727;SDS011;8984;49.268;12.302;2022-09-09T11:06:24;1.17;;;0.60;;
17727;SDS011;8984;49.268;12.302;2022-09-09T11:08:57;1.30;;;0.80;;
17727;SDS011;8984;49.268;12.302;2022-09-09T11:11:27;1.92;;;0.98;;
17727;SDS011;8984;49.268;12.302;2022-09-09T11:14:01;1.35;;;0.82;;
17727;SDS011;8984;49.268;12.302;2022-09-09T11:16:36;2.30;;;0.80;;
17727;SDS011;8984;49.268;12.302;2022-09-09T11:19:11;3.00;;;0.80;;
17727;SDS011;8984;49.268;12.302;2022-09-09T11:21:45;2.50;;;0.80;;
17727;SDS011;8984;49.268;12.302;2022-09-09T11:24:15;1.38;;;0.70;;
17727;SDS011;8984;49.268;12.302;2022-09-09T11:26:49;2.15;;;0.75;;
17727;SDS011;8984;49.268;12.302;2022-09-09T11:29:28;11.00;;;0.77;;
17727;SDS011;8984;49.268;12.302;2022-09-09T11:32:28;4.45;;;0.90;;
17727;SDS011;8984;49.268;12.302;2022-09-09T11:35:18;1.55;;;0.80;;
17727;SDS011;8984;49.268;12.302;2022-09-09T11:37:59;1.35;;;0.60;;
17727;SDS011;8984;49.268;12.302;2022-09-09T11:40:34;0.60;;;0.55;;
17727;SDS011;8984;49.268;12.302;2022-09-09T11:43:02;0.93;;;0.60;;
17727;SDS011;8984;49.268;12.302;2022-09-09T11:45:31;1.77;;;0.50;;
17727;SDS011;8984;49.268;12.302;2022-09-09T11:48:01;1.63;;;0.60;;
17727;SDS011;8984;49.268;12.302;2022-09-09T11:50:36;1.25;;;0.60;;
17727;SDS011;8984;49.268;12.302;2022-09-09T11:56:09;3.45;;;2.80;;
17727;SDS011;8984;49.268;12.302;2022-09-09T11:58:39;2.00;;;0.73;;
17727;SDS011;8984;49.268;12.302;2022-09-09T12:01:14;1.42;;;0.70;;
17727;SDS011;8984;49.268;12.302;2022-09-09T12:03:54;2.53;;;0.75;;
17727;SDS011;8984;49.268;12.302;2022-09-09T12:06:29;2.83;;;0.80;;
17727;SDS011;8984;49.268;12.302;2022-09-09T12:08:58;2.55;;;0.70;;
17727;SDS011;8984;49.268;12.302;2022-09-09T12:11:34;1.73;;;1.00;;
17727;SDS011;8984;49.268;12.302;2022-09-09T12:14:02;1.95;;;0.88;;
17727;SDS011;8984;49.268;12.302;2022-09-09T12:19:07;2.05;;;0.70;;
17727;SDS011;8984;49.268;12.302;2022-09-09T12:21:45;1.40;;;0.80;;
17727;SDS011;8984;49.268;12.302;2022-09-09T12:24:21;2.58;;;0.90;;
17727;SDS011;8984;49.268;12.302;2022-09-09T12:26:56;1.30;;;0.73;;
17727;SDS011;8984;49.268;12.302;2022-09-09T12:29:30;1.75;;;0.63;;
17727;SDS011;8984;49.268;12.302;2022-09-09T12:32:06;2.00;;;0.70;;
17727;SDS011;8984;49.268;12.302;2022-09-09T12:34:40;1.08;;;0.50;;
17727;SDS011;8984;49.268;12.302;2022-09-09T12:37:14;0.65;;;0.50;;
17727;SDS011;8984;49.268;12.302;2022-09-09T12:39:49;2.05;;;0.73;;
17727;SDS011;8984;49.268;12.302;2022-09-09T12:42:20;2.42;;;0.57;;
17727;SDS011;8984;49.268;12.302;2022-09-09T12:44:51;1.83;;;0.60;;
17727;SDS011;8984;49.268;12.302;2022-09-09T12:47:20;1.40;;;0.65;;
17727;SDS011;8984;49.268;12.302;2022-09-09T12:49:51;1.60;;;0.70;;
17727;SDS011;8984;49.268;12.302;2022-09-09T12:52:20;1.10;;;0.60;;
17727;SDS011;8984;49.268;12.302;2022-09-09T12:54:55;2.08;;;0.60;;
17727;SDS011;8984;49.268;12.302;2022-09-09T12:57:23;3.10;;;0.80;;
17727;SDS011;8984;49.268;12.302;2022-09-09T12:59:52;1.35;;;0.70;;
17727;SDS011;8984;49.268;12.302;2022-09-09T13:02:30;5.18;;;0.98;;
17727;SDS011;8984;49.268;12.302;2022-09-09T13:05:05;3.78;;;1.00;;
17727;SDS011;8984;49.268;12.302;2022-09-09T13:07:34;2.38;;;0.95;;
17727;SDS011;8984;49.268;12.302;2022-09-09T13:10:01;4.28;;;1.00;;
17727;SDS011;8984;49.268;12.302;2022-09-09T13:12:28;1.77;;;0.98;;
17727;SDS011;8984;49.268;12.302;2022-09-09T13:14:55;2.88;;;0.75;;
17727;SDS011;8984;49.268;12.302;2022-09-09T13:17:23;4.40;;;0.90;;
17727;SDS011;8984;49.268;12.302;2022-09-09T13:19:52;1.60;;;1.05;;
17727;SDS011;8984;49.268;12.302;2022-09-09T13:22:21;1.95;;;0.80;;
17727;SDS011;8984;49.268;12.302;2022-09-09T13:24:59;2.25;;;0.90;;
17727;SDS011;8984;49.268;12.302;2022-09-09T13:27:29;2.22;;;1.08;;
17727;SDS011;8984;49.268;12.302;2022-09-09T13:29:57;1.73;;;0.90;;
17727;SDS011;8984;49.268;12.302;2022-09-09T13:32:24;1.55;;;0.70;;
17727;SDS011;8984;49.268;12.302;2022-09-09T13:34:53;2.10;;;0.93;;
17727;SDS011;8984;49.268;12.302;2022-09-09T13:37:22;3.63;;;0.93;;
17727;SDS011;8984;49.268;12.302;2022-09-09T13:39:53;2.30;;;0.90;;
17727;SDS011;8984;49.268;12.302;2022-09-09T13:42:25;1.50;;;0.73;;
17727;SDS011;8984;49.268;12.302;2022-09-09T13:44:54;3.63;;;0.95;;
17727;SDS011;8984;49.268;12.302;2022-09-09T13:47:26;2.60;;;0.82;;
17727;SDS011;8984;49.268;12.302;2022-09-09T13:49:56;3.28;;;0.90;;
17727;SDS011;8984;49.268;12.302;2022-09-09T13:52:23;2.80;;;0.95;;
17727;SDS011;8984;49.268;12.302;2022-09-09T13:54:51;2.80;;;0.90;;
17727;SDS011;8984;49.268;12.302;2022-09-09T13:57:20;1.60;;;1.10;;
17727;SDS011;8984;49.268;12.302;2022-09-09T13:59:51;5.47;;;1.63;;
17727;SDS011;8984;49.268;12.302;2022-09-09T14:02:19;5.35;;;2.00;;
17727;SDS011;8984;49.268;12.302;2022-09-09T14:04:48;2.42;;;1.20;;
17727;SDS011;8984;49.268;12.302;2022-09-09T14:07:20;2.88;;;0.90;;
17727;SDS011;8984;49.268;12.302;2022-09-09T14:09:47;3.17;;;1.40;;
17727;SDS011;8984;49.268;12.302;2022-09-09T14:12:15;3.63;;;1.92;;
17727;SDS011;8984;49.268;12.302;2022-09-09T14:14:41;4.72;;;1.13;;
17727;SDS011;8984;49.268;12.302;2022-09-09T14:17:10;2.00;;;1.23;;
17727;SDS011;8984;49.268;12.302;2022-09-09T14:19:37;4.32;;;1.10;;
17727;SDS011;8984;49.268;12.302;2022-09-09T14:22:04;2.95;;;1.10;;
17727;SDS011;8984;49.268;12.302;2022-09-09T14:24:30;2.17;;;1.00;;
17727;SDS011;8984;49.268;12.302;2022-09-09T14:26:58;3.17;;;1.23;;
17727;SDS011;8984;49.268;12.302;2022-09-09T14:29:24;2.50;;;0.98;;
17727;SDS011;8984;49.268;12.302;2022-09-09T14:31:51;3.92;;;1.00;;
17727;SDS011;8984;49.268;12.302;2022-09-09T14:34:19;4.03;;;1.40;;
17727;SDS011;8984;49.268;12.302;2022-09-09T14:36:46;4.25;;;1.27;;
17727;SDS011;8984;49.268;12.302;2022-09-09T14:39:13;4.00;;;1.10;;
17727;SDS011;8984;49.268;12.302;2022-09-09T14:41:40;2.25;;;0.90;;
17727;SDS011;8984;49.268;12.302;2022-09-09T14:44:06;1.38;;;1.00;;
17727;SDS011;8984;49.268;12.302;2022-09-09T14:46:34;3.42;;;1.20;;
17727;SDS011;8984;49.268;12.302;2022-09-09T14:49:00;3.40;;;1.00;;
17727;SDS011;8984;49.268;12.302;2022-09-09T14:51:29;3.83;;;1.10;;
17727;SDS011;8984;49.268;12.302;2022-09-09T14:53:56;5.47;;;1.00;;
17727;SDS011;8984;49.268;12.302;2022-09-09T14:56:25;2.28;;;1.08;;
17727;SDS011;8984;49.268;12.302;2022-09-09T14:58:55;2.88;;;1.02;;
17727;SDS011;8984;49.268;12.302;2022-09-09T15:01:22;3.80;;;1.00;;
17727;SDS011;8984;49.268;12.302;2022-09-09T15:03:53;3.10;;;1.10;;
17727;SDS011;8984;49.268;12.302;2022-09-09T15:06:21;2.70;;;0.90;;
17727;SDS011;8984;49.268;12.302;2022-09-09T15:08:51;2.95;;;1.10;;
17727;SDS011;8984;49.268;12.302;2022-09-09T15:11:19;2.25;;;0.90;;
17727;SDS011;8984;49.268;12.302;2022-09-09T15:13:50;2.42;;;0.88;;
17727;SDS011;8984;49.268;12.302;2022-09-09T15:16:18;2.08;;;1.00;;
17727;SDS011;8984;49.268;12.302;2022-09-09T15:18:46;3.10;;;1.10;;
17727;SDS011;8984;49.268;12.302;2022-09-09T15:21:17;2.85;;;0.88;;
17727;SDS011;8984;49.268;12.302;2022-09-09T15:23:46;3.90;;;0.98;;